Time;durP1;ratioP1;P1;durP2;ratioP2;P2;SDS_P1;SDS_P2;PMS_P1;PMS_P2;Temp;Humidity;BMP_temperature;BMP_pressure;BME280_temperature;BME280_humidity;BME280_pressure;Samples;Min_cycle;Max_cycle;Signal;HPM_P1;HPM_P2
2023/12/25 00:02:17;;;;;;;0.30;0.30;;;;;;;5.34;88.67;94702.05;106692;1274;25348;-78
2023/12/25 00:04:45;;;;;;;0.30;0.30;;;;;;;5.38;89.01;94707.77;106766;1274;25428;-79
2023/12/25 00:07:13;;;;;;;0.20;0.20;;;;;;;5.39;88.88;94722.91;106790;1274;22514;-78
2023/12/25 00:09:41;;;;;;;0.30;0.20;;;;;;;5.40;89.32;94738.06;106849;1274;22636;-79
2023/12/25 00:12:09;;;;;;;0.30;0.30;;;;;;;5.38;89.22;94727.64;106661;1274;22537;-77
2023/12/25 00:14:38;;;;;;;0.30;0.30;;;;;;;5.33;89.37;94723.17;106766;1274;24474;-78
2023/12/25 00:17:06;;;;;;;0.30;0.30;;;;;;;5.32;90.01;94724.23;106850;1274;24228;-78
2023/12/25 00:19:34;;;;;;;0.10;0.10;;;;;;;5.37;90.52;94718.23;106652;1274;22555;-77
2023/12/25 00:22:03;;;;;;;0.20;0.20;;;;;;;5.39;90.78;94722.91;106759;1274;22635;-77
2023/12/25 00:24:31;;;;;;;0.30;0.30;;;;;;;5.37;90.75;94719.11;106787;1274;22530;-78
2023/12/25 00:26:59;;;;;;;0.10;0.10;;;;;;;5.31;91.10;94717.95;106773;1274;22525;-76
2023/12/25 00:29:27;;;;;;;0.10;0.10;;;;;;;5.37;91.95;94714.21;106716;1274;22530;-76
2023/12/25 00:31:55;;;;;;;0.10;0.10;;;;;;;5.44;91.99;94709.25;106835;1274;22523;-76
2023/12/25 00:34:24;;;;;;;0.20;0.20;;;;;;;5.49;92.12;94703.77;106772;1274;22519;-76
2023/12/25 00:36:52;;;;;;;0.20;0.20;;;;;;;5.48;91.41;94702.74;106710;1274;24355;-78
2023/12/25 00:39:20;;;;;;;0.00;0.00;;;;;;;5.43;92.27;94703.33;106904;1274;22625;-77
2023/12/25 00:41:48;;;;;;;0.10;0.10;;;;;;;5.55;92.88;94713.83;106795;1274;22758;-76
2023/12/25 00:44:17;;;;;;;0.10;0.10;;;;;;;5.59;92.58;94713.77;106805;1274;22620;-77
2023/12/25 00:46:45;;;;;;;0.10;0.10;;;;;;;5.59;92.67;94720.73;106638;1275;22529;-77
2023/12/25 00:49:15;;;;;;;0.10;0.10;;;;;;;5.59;92.15;94719.17;106785;1274;22527;-76
2023/12/25 00:51:44;;;;;;;0.10;0.10;;;;;;;5.55;91.94;94719.56;106823;1274;23907;-76
2023/12/25 00:54:12;;;;;;;0.10;0.10;;;;;;;5.57;92.75;94712.58;106797;1274;22656;-76
2023/12/25 00:56:40;;;;;;;0.50;0.10;;;;;;;5.58;92.88;94710.45;106658;1274;22532;-78
2023/12/25 00:59:12;;;;;;;0.00;0.00;;;;;;;5.65;93.40;94719.61;106772;1274;25290;-78
2023/12/25 01:01:40;;;;;;;0.10;0.10;;;;;;;5.69;92.86;94720.95;106748;1274;22635;-76
2023/12/25 01:04:08;;;;;;;0.00;0.00;;;;;;;5.73;92.74;94697.88;106826;1274;24199;-76
2023/12/25 01:06:37;;;;;;;0.10;0.10;;;;;;;5.93;92.80;94688.16;106742;1272;25749;-78
2023/12/25 01:09:05;;;;;;;0.10;0.10;;;;;;;6.02;92.36;94678.27;106833;1274;22570;-76
2023/12/25 01:11:39;;;;;;;0.20;0.10;;;;;;;6.13;92.08;94664.10;106625;1274;24236;-77
2023/12/25 01:14:09;;;;;;;0.20;0.10;;;;;;;6.17;91.77;94660.20;106850;1274;22635;-78
2023/12/25 01:16:38;;;;;;;0.10;0.10;;;;;;;6.19;91.14;94648.31;106813;1271;22634;-76
2023/12/25 01:19:06;;;;;;;0.20;0.10;;;;;;;6.27;91.01;94626.33;106778;1274;25233;-76
2023/12/25 01:21:35;;;;;;;0.10;0.10;;;;;;;6.37;90.21;94617.95;106892;1273;22523;-77
2023/12/25 01:24:03;;;;;;;0.50;0.50;;;;;;;6.40;89.36;94608.29;106950;1273;22640;-77
2023/12/25 01:26:31;;;;;;;0.20;0.20;;;;;;;6.42;88.96;94604.76;106886;1263;22603;-78
2023/12/25 01:29:00;;;;;;;0.60;0.20;;;;;;;6.44;88.48;94610.14;106906;1273;22607;-79
2023/12/25 01:31:28;;;;;;;0.20;0.20;;;;;;;6.45;88.58;94619.71;106907;1273;22518;-77
2023/12/25 01:33:56;;;;;;;1.20;0.30;;;;;;;6.45;87.95;94619.56;106855;1273;22636;-76
2023/12/25 01:36:24;;;;;;;1.10;0.30;;;;;;;6.58;86.98;94620.89;106761;1273;22529;-78
2023/12/25 01:38:52;;;;;;;0.60;0.20;;;;;;;6.67;86.81;94627.54;106932;1273;25507;-77
2023/12/25 01:41:21;;;;;;;0.90;0.40;;;;;;;6.68;86.44;94630.83;106863;1273;25380;-77
2023/12/25 01:43:50;;;;;;;0.90;0.40;;;;;;;6.73;86.15;94644.71;106810;1273;22809;-78
2023/12/25 01:46:18;;;;;;;1.70;0.60;;;;;;;6.79;85.65;94641.29;106851;1273;22668;-76
2023/12/25 01:48:50;;;;;;;1.50;0.60;;;;;;;6.79;85.60;94644.95;106949;1273;22530;-78
2023/12/25 01:51:22;;;;;;;1.10;0.50;;;;;;;6.85;85.23;94658.30;106934;1273;22647;-78
2023/12/25 01:53:52;;;;;;;3.20;0.70;;;;;;;6.88;85.06;94662.27;106803;1273;22514;-76
2023/12/25 01:56:20;;;;;;;3.00;0.70;;;;;;;6.96;84.98;94643.76;107103;1273;24236;-77
2023/12/25 01:58:49;;;;;;;6.20;1.00;;;;;;;6.90;84.88;94631.98;107141;1273;25427;-78
2023/12/25 02:01:18;;;;;;;2.50;1.00;;;;;;;6.85;85.15;94613.02;106901;1273;24297;-78
2023/12/25 02:03:47;;;;;;;2.00;0.80;;;;;;;6.79;85.26;94598.28;106799;1273;22517;-78
2023/12/25 02:06:16;;;;;;;3.00;1.30;;;;;;;6.67;85.37;94618.95;106881;1273;22636;-78
2023/12/25 02:08:45;;;;;;;2.70;1.10;;;;;;;6.75;85.13;94622.11;106979;1273;24263;-77
2023/12/25 02:11:14;;;;;;;4.40;1.10;;;;;;;6.86;84.94;94600.23;106817;1273;22556;-76
2023/12/25 02:13:42;;;;;;;4.10;1.30;;;;;;;6.82;84.67;94594.04;106682;1273;22750;-78
2023/12/25 02:16:11;;;;;;;3.60;1.50;;;;;;;6.81;84.77;94582.86;106874;1273;22510;-78
2023/12/25 02:18:39;;;;;;;3.10;1.40;;;;;;;6.76;84.45;94581.91;106778;1273;23122;-78
2023/12/25 02:21:09;;;;;;;6.10;1.90;;;;;;;6.81;84.06;94595.98;106833;1273;22524;-78
2023/12/25 02:23:38;;;;;;;5.00;1.40;;;;;;;6.92;83.71;94599.24;106863;1274;22520;-78
2023/12/25 02:26:08;;;;;;;4.10;1.40;;;;;;;6.93;83.19;94597.30;106830;1274;24400;-78
2023/12/25 02:28:36;;;;;;;5.00;1.60;;;;;;;6.94;83.25;94602.19;106810;1274;22524;-76
2023/12/25 02:31:05;;;;;;;5.50;1.90;;;;;;;7.08;82.18;94599.45;106878;1274;22520;-76
2023/12/25 02:33:34;;;;;;;3.00;1.50;;;;;;;7.20;81.89;94617.02;106825;1274;25439;-78
2023/12/25 02:36:02;;;;;;;4.60;1.60;;;;;;;7.20;81.34;94602.87;106784;1274;24271;-77
2023/12/25 02:38:31;;;;;;;6.70;1.60;;;;;;;7.26;80.81;94599.59;106662;1266;22526;-77
2023/12/25 02:40:59;;;;;;;4.80;1.60;;;;;;;7.32;80.51;94592.09;106858;1274;24396;-76
2023/12/25 02:43:27;;;;;;;4.10;1.20;;;;;;;7.48;79.82;94598.92;106735;1274;23029;-77
2023/12/25 02:45:56;;;;;;;3.70;1.30;;;;;;;7.47;79.75;94597.73;106750;1274;22534;-77
2023/12/25 02:48:25;;;;;;;3.80;1.30;;;;;;;7.51;79.95;94616.71;106761;1274;24890;-77
2023/12/25 02:50:53;;;;;;;3.20;1.10;;;;;;;7.54;80.27;94605.79;106780;1274;22524;-77
2023/12/25 02:53:21;;;;;;;2.80;1.00;;;;;;;7.47;80.55;94590.89;106693;1274;25433;-77
2023/12/25 02:55:49;;;;;;;2.30;1.00;;;;;;;7.42;80.95;94592.74;106778;1274;22531;-77
2023/12/25 02:58:18;;;;;;;2.20;0.90;;;;;;;7.39;81.04;94594.22;106689;1274;22604;-77
2023/12/25 03:00:46;;;;;;;2.20;0.80;;;;;;;7.33;81.08;94595.06;106667;1274;25353;-78
2023/12/25 03:03:15;;;;;;;1.90;1.10;;;;;;;7.27;81.35;94601.32;106822;1274;25416;-77
2023/12/25 03:05:43;;;;;;;3.10;1.10;;;;;;;7.22;81.62;94605.62;106884;1275;22522;-77
2023/12/25 03:08:11;;;;;;;3.30;1.50;;;;;;;7.15;81.66;94601.55;106685;1274;22547;-77
2023/12/25 03:10:39;;;;;;;2.00;1.30;;;;;;;7.09;81.78;94596.62;106710;1274;25361;-76
2023/12/25 03:13:08;;;;;;;3.60;1.20;;;;;;;7.01;81.87;94601.16;106693;1274;24242;-79
2023/12/25 03:15:37;;;;;;;2.80;1.20;;;;;;;6.99;81.66;94612.39;106812;1274;25345;-76
2023/12/25 03:18:05;;;;;;;6.00;1.30;;;;;;;7.06;81.33;94613.81;106830;1274;25496;-77
2023/12/25 03:20:34;;;;;;;4.10;1.50;;;;;;;7.10;80.92;94617.77;106866;1274;22708;-77
2023/12/25 03:23:02;;;;;;;4.10;1.40;;;;;;;7.13;80.53;94616.46;106762;1274;22540;-78
2023/12/25 03:25:30;;;;;;;4.60;1.50;;;;;;;7.20;80.10;94608.12;106883;1274;25396;-78
2023/12/25 03:27:58;;;;;;;5.30;1.30;;;;;;;7.23;79.99;94612.08;106616;1274;23160;-78
2023/12/25 03:30:26;;;;;;;2.70;1.60;;;;;;;7.14;79.98;94607.00;106769;1274;25411;-78
2023/12/25 03:32:54;;;;;;;3.10;1.40;;;;;;;7.06;80.20;94612.42;106845;1274;22630;-77
2023/12/25 03:35:23;;;;;;;2.40;1.40;;;;;;;7.08;80.16;94616.92;106770;1274;22519;-78
2023/12/25 03:37:51;;;;;;;6.30;1.90;;;;;;;7.12;80.07;94616.66;106690;1274;22642;-78
2023/12/25 03:40:20;;;;;;;2.90;1.30;;;;;;;7.14;80.09;94599.83;106761;1274;22639;-77
2023/12/25 03:42:48;;;;;;;4.40;2.00;;;;;;;7.18;79.87;94597.30;106765;1274;22666;-77
2023/12/25 03:45:16;;;;;;;3.30;1.60;;;;;;;7.25;79.75;94576.88;106742;1274;22534;-77
2023/12/25 03:47:44;;;;;;;3.30;1.90;;;;;;;7.22;79.69;94576.06;106672;1274;22618;-78
2023/12/25 03:50:13;;;;;;;6.70;2.10;;;;;;;7.14;79.87;94584.27;106612;1274;24279;-76
2023/12/25 03:52:42;;;;;;;3.60;1.90;;;;;;;7.20;78.87;94590.27;106958;1274;24527;-76
2023/12/25 03:55:13;;;;;;;2.60;1.60;;;;;;;7.24;78.59;94572.70;106558;1275;22525;-77
2023/12/25 03:57:42;;;;;;;4.30;1.80;;;;;;;7.22;78.46;94584.28;106751;1274;24393;-77
2023/12/25 04:00:11;;;;;;;7.00;2.00;;;;;;;7.31;77.95;94593.34;106790;1274;25022;-78
2023/12/25 04:02:42;;;;;;;2.50;1.60;;;;;;;7.40;77.65;94580.90;106799;1274;25411;-76
2023/12/25 04:05:11;;;;;;;4.40;2.20;;;;;;;7.57;76.60;94580.00;106669;1274;22543;-77
2023/12/25 04:07:39;;;;;;;5.30;2.30;;;;;;;7.61;76.62;94599.50;106714;1274;25351;-77
2023/12/25 04:10:08;;;;;;;3.50;2.30;;;;;;;7.69;76.37;94623.83;106806;1270;26889;-78
2023/12/25 04:12:36;;;;;;;4.20;2.20;;;;;;;7.69;76.32;94631.86;106736;1274;22931;-76
2023/12/25 04:15:06;;;;;;;3.70;1.30;;;;;;;7.58;76.55;94635.80;106778;1274;22539;-77
2023/12/25 04:17:34;;;;;;;3.30;1.80;;;;;;;7.60;77.21;94620.53;106786;1274;22536;-79
2023/12/25 04:20:03;;;;;;;5.80;2.00;;;;;;;7.70;77.45;94628.52;106683;1275;25536;-77
2023/12/25 04:22:32;;;;;;;3.70;1.70;;;;;;;7.70;77.73;94633.26;106859;1274;22646;-76
2023/12/25 04:25:00;;;;;;;3.80;2.10;;;;;;;7.68;78.71;94635.74;106686;1274;22523;-76
2023/12/25 04:27:28;;;;;;;3.80;1.70;;;;;;;7.66;79.13;94653.47;106744;1274;25411;-77
2023/12/25 04:29:57;;;;;;;3.10;1.80;;;;;;;7.59;79.69;94662.38;106852;1274;25355;-76
2023/12/25 04:32:25;;;;;;;4.40;1.80;;;;;;;7.48;80.19;94659.81;106761;1274;22528;-76
2023/12/25 04:34:54;;;;;;;1.80;1.20;;;;;;;7.40;80.78;94681.16;106746;1274;22610;-77
2023/12/25 04:37:22;;;;;;;2.20;1.60;;;;;;;7.31;81.61;94684.31;106700;1274;22521;-76
2023/12/25 04:39:51;;;;;;;3.40;1.20;;;;;;;7.23;82.31;94694.27;106795;1274;22567;-76
2023/12/25 04:42:20;;;;;;;1.80;1.30;;;;;;;7.15;82.96;94684.82;106773;1274;24444;-76
2023/12/25 04:44:48;;;;;;;4.00;1.50;;;;;;;7.09;83.65;94709.94;106824;1274;25243;-76
2023/12/25 04:47:16;;;;;;;2.60;1.70;;;;;;;7.09;84.53;94697.35;106742;1274;24349;-76
2023/12/25 04:49:44;;;;;;;5.30;2.50;;;;;;;7.04;85.11;94689.94;106850;1274;22517;-76
2023/12/25 04:52:13;;;;;;;2.80;1.70;;;;;;;6.98;85.54;94692.84;106762;1275;25271;-76
2023/12/25 04:54:41;;;;;;;1.90;1.30;;;;;;;6.91;85.97;94686.84;106704;1274;24235;-76
2023/12/25 04:57:09;;;;;;;3.00;1.90;;;;;;;6.86;86.15;94676.98;106751;1274;25351;-76
2023/12/25 04:59:37;;;;;;;4.30;2.10;;;;;;;6.86;86.64;94694.11;106725;1273;22523;-77
2023/12/25 05:02:05;;;;;;;6.70;2.40;;;;;;;6.87;86.99;94687.80;106716;1274;24199;-77
2023/12/25 05:04:34;;;;;;;2.20;1.60;;;;;;;6.91;87.30;94700.31;106769;1275;24063;-77
2023/12/25 05:07:03;;;;;;;2.20;1.30;;;;;;;7.00;86.93;94700.84;106661;1274;25494;-77
2023/12/25 05:09:32;;;;;;;3.00;2.60;;;;;;;7.03;87.18;94698.33;106680;1274;22520;-76
2023/12/25 05:12:01;;;;;;;1.40;1.30;;;;;;;7.06;87.44;94693.20;106699;1274;22556;-76
2023/12/25 05:14:29;;;;;;;1.20;1.10;;;;;;;7.05;87.53;94701.27;106779;1274;22524;-76
2023/12/25 05:16:57;;;;;;;1.30;1.20;;;;;;;7.06;87.80;94719.27;106559;1274;22585;-76
2023/12/25 05:19:25;;;;;;;2.60;1.60;;;;;;;7.05;87.95;94708.95;106834;1274;25632;-77
2023/12/25 05:21:54;;;;;;;3.30;1.50;;;;;;;7.07;87.73;94712.43;106796;1274;22875;-76
2023/12/25 05:24:22;;;;;;;1.40;1.20;;;;;;;7.12;87.31;94726.48;106738;1274;24272;-76
2023/12/25 05:26:50;;;;;;;1.00;0.90;;;;;;;7.16;87.26;94713.12;106827;1275;24384;-76
2023/12/25 05:29:18;;;;;;;1.40;1.20;;;;;;;7.17;87.34;94727.27;106764;1274;22523;-77
2023/12/25 05:31:46;;;;;;;3.00;1.50;;;;;;;7.17;87.15;94705.41;106735;1275;22542;-77
2023/12/25 05:34:15;;;;;;;2.20;1.50;;;;;;;7.15;87.13;94713.48;106658;1274;22523;-78
2023/12/25 05:36:43;;;;;;;1.60;1.10;;;;;;;7.15;87.15;94719.80;106757;1274;22652;-77
2023/12/25 05:39:11;;;;;;;3.80;1.70;;;;;;;7.22;86.91;94711.45;106801;1274;22524;-78
2023/12/25 05:41:41;;;;;;;1.60;1.20;;;;;;;7.26;86.66;94708.38;106685;1274;24512;-76
2023/12/25 05:44:10;;;;;;;5.30;2.10;;;;;;;7.31;86.55;94705.13;106659;1274;24076;-77
2023/12/25 05:46:38;;;;;;;3.30;1.70;;;;;;;7.43;86.22;94701.20;106806;1274;23861;-77
2023/12/25 05:49:06;;;;;;;3.60;1.90;;;;;;;7.46;86.03;94710.43;106662;1274;22639;-76
2023/12/25 05:51:35;;;;;;;2.20;1.60;;;;;;;7.47;85.85;94711.80;106776;1274;24274;-78
2023/12/25 05:54:03;;;;;;;3.30;1.30;;;;;;;7.45;85.96;94717.63;106722;1274;22650;-76
2023/12/25 05:56:32;;;;;;;2.60;1.90;;;;;;;7.41;85.84;94724.00;106697;1260;24403;-77
2023/12/25 05:59:00;;;;;;;2.40;2.20;;;;;;;7.42;85.63;94726.98;106661;1254;25479;-76
2023/12/25 06:01:28;;;;;;;4.40;3.00;;;;;;;7.46;85.22;94713.73;106878;1274;22517;-77
2023/12/25 06:03:58;;;;;;;5.30;2.20;;;;;;;7.45;85.31;94719.35;106800;1275;22631;-76
2023/12/25 06:06:27;;;;;;;5.30;2.50;;;;;;;7.49;85.49;94713.88;106828;1274;25391;-77
2023/12/25 06:08:56;;;;;;;7.50;2.30;;;;;;;7.45;85.80;94716.20;106833;1274;25418;-76
2023/12/25 06:11:24;;;;;;;4.90;2.40;;;;;;;7.41;86.11;94712.10;106716;1274;22639;-76
2023/12/25 06:13:52;;;;;;;5.00;2.30;;;;;;;7.38;86.28;94708.14;106697;1275;25378;-76
2023/12/25 06:16:20;;;;;;;4.20;2.10;;;;;;;7.32;86.38;94708.98;106779;1274;22520;-77
2023/12/25 06:18:48;;;;;;;5.20;2.80;;;;;;;7.30;86.13;94721.25;106655;1274;24229;-78
2023/12/25 06:21:17;;;;;;;4.10;2.00;;;;;;;7.31;86.05;94712.66;106733;1274;24453;-77
2023/12/25 06:23:45;;;;;;;4.70;2.40;;;;;;;7.35;85.99;94716.77;106801;1274;24225;-78
2023/12/25 06:26:13;;;;;;;5.70;2.70;;;;;;;7.38;85.62;94727.56;106711;1274;24219;-77
2023/12/25 06:28:41;;;;;;;3.70;2.40;;;;;;;7.39;85.43;94733.49;106709;1274;22549;-78
2023/12/25 06:31:10;;;;;;;3.90;2.60;;;;;;;7.44;85.06;94729.88;106811;1274;22823;-78
2023/12/25 06:33:38;;;;;;;1.80;1.60;;;;;;;7.42;85.01;94732.91;106677;1274;25404;-77
2023/12/25 06:36:07;;;;;;;4.60;2.30;;;;;;;7.47;85.12;94743.65;106837;1274;22522;-78
2023/12/25 06:38:35;;;;;;;3.30;2.20;;;;;;;7.51;84.67;94742.51;106722;1274;22540;-76
2023/12/25 06:41:03;;;;;;;4.90;2.90;;;;;;;7.52;84.47;94739.34;106776;1274;25275;-76
2023/12/25 06:43:32;;;;;;;4.80;2.20;;;;;;;7.52;84.32;94736.02;106875;1274;22529;-76
2023/12/25 06:46:00;;;;;;;5.30;2.80;;;;;;;7.51;84.32;94742.33;106670;1274;22539;-77
2023/12/25 06:48:29;;;;;;;4.70;3.10;;;;;;;7.51;84.11;94747.23;106788;1274;22556;-77
2023/12/25 06:50:57;;;;;;;3.20;2.20;;;;;;;7.52;84.03;94741.63;106865;1275;25421;-76
2023/12/25 06:53:26;;;;;;;3.10;1.80;;;;;;;7.58;83.86;94750.79;106828;1274;22536;-78
2023/12/25 06:55:54;;;;;;;3.30;2.00;;;;;;;7.62;83.59;94736.69;106823;1274;24473;-77
2023/12/25 06:58:22;;;;;;;4.70;2.30;;;;;;;7.66;83.46;94741.70;106740;1274;25341;-77
2023/12/25 07:00:51;;;;;;;3.00;2.60;;;;;;;7.69;83.35;94730.05;106811;1262;22528;-77
2023/12/25 07:03:19;;;;;;;4.20;2.50;;;;;;;7.67;83.43;94727.66;106716;1274;25641;-77
2023/12/25 07:05:48;;;;;;;6.00;2.40;;;;;;;7.67;83.49;94729.23;106776;1274;24272;-77
2023/12/25 07:08:17;;;;;;;3.50;2.10;;;;;;;7.68;83.81;94731.66;106797;1274;25385;-78
2023/12/25 07:10:46;;;;;;;5.80;3.10;;;;;;;7.74;83.50;94727.16;106809;1274;22537;-76
2023/12/25 07:13:15;;;;;;;7.00;3.20;;;;;;;7.74;83.49;94726.63;106775;1274;24222;-76
2023/12/25 07:15:43;;;;;;;3.80;2.70;;;;;;;7.74;83.66;94750.09;106600;1274;22521;-76
2023/12/25 07:18:12;;;;;;;5.00;2.70;;;;;;;7.76;83.44;94757.58;106723;1274;22599;-77
2023/12/25 07:20:40;;;;;;;3.30;2.10;;;;;;;7.79;83.44;94753.48;106723;1275;25249;-76
2023/12/25 07:23:10;;;;;;;3.70;2.40;;;;;;;7.81;83.43;94770.61;106856;1274;24375;-77
2023/12/25 07:25:38;;;;;;;3.90;2.30;;;;;;;7.81;83.35;94784.61;106824;1274;22573;-78
2023/12/25 07:28:07;;;;;;;4.40;2.50;;;;;;;7.81;83.39;94797.91;106749;1274;22543;-77
2023/12/25 07:30:35;;;;;;;3.60;2.40;;;;;;;7.86;83.14;94779.95;106813;1274;22565;-77
2023/12/25 07:33:04;;;;;;;3.80;2.20;;;;;;;7.93;82.63;94786.99;106887;1274;22598;-77
2023/12/25 07:35:32;;;;;;;5.30;2.50;;;;;;;7.95;82.51;94784.30;106816;1274;24276;-78
2023/12/25 07:38:01;;;;;;;4.90;2.60;;;;;;;7.94;82.52;94783.82;106822;1274;24410;-77
2023/12/25 07:40:29;;;;;;;4.90;2.50;;;;;;;7.98;82.42;94799.30;106745;1274;25284;-77
2023/12/25 07:42:59;;;;;;;5.10;3.40;;;;;;;8.05;82.17;94800.05;106746;1274;24064;-77
2023/12/25 07:45:27;;;;;;;4.40;2.70;;;;;;;8.06;81.96;94802.48;106743;1274;22521;-77
2023/12/25 07:47:55;;;;;;;6.70;3.60;;;;;;;8.05;81.75;94797.05;106787;1274;22643;-77
2023/12/25 07:50:25;;;;;;;3.40;2.70;;;;;;;8.06;81.83;94791.08;106831;1274;22810;-78
2023/12/25 07:52:55;;;;;;;4.80;2.90;;;;;;;8.02;82.01;94794.33;106836;1274;22634;-77
2023/12/25 07:55:23;;;;;;;6.10;4.10;;;;;;;8.00;81.95;94797.48;106752;1274;24259;-77
2023/12/25 07:57:52;;;;;;;9.00;6.60;;;;;;;8.05;81.69;94801.63;106769;1274;25344;-78
2023/12/25 08:00:21;;;;;;;25.50;12.50;;;;;;;8.13;81.63;94802.66;106839;1274;26659;-77
2023/12/25 08:02:49;;;;;;;19.90;10.90;;;;;;;8.20;81.37;94800.41;106755;1274;22538;-77
2023/12/25 08:05:18;;;;;;;5.10;3.30;;;;;;;8.22;81.33;94806.84;106773;1274;25341;-78
2023/12/25 08:07:46;;;;;;;5.40;2.70;;;;;;;8.25;81.08;94812.74;106811;1274;22835;-77
2023/12/25 08:10:15;;;;;;;2.90;2.40;;;;;;;8.33;80.62;94823.77;106647;1274;25245;-77
2023/12/25 08:12:43;;;;;;;3.80;2.60;;;;;;;8.39;80.32;94819.45;106820;1251;24247;-77
2023/12/25 08:15:12;;;;;;;4.00;2.80;;;;;;;8.45;79.99;94817.05;106794;1274;25256;-76
2023/12/25 08:17:41;;;;;;;5.50;2.60;;;;;;;8.49;79.67;94828.01;106560;1275;22651;-77
2023/12/25 08:20:10;;;;;;;6.60;3.30;;;;;;;8.52;79.28;94822.02;106906;1274;24221;-76
2023/12/25 08:22:38;;;;;;;2.80;2.50;;;;;;;8.54;79.20;94819.30;106725;1274;24969;-77
2023/12/25 08:25:07;;;;;;;3.80;3.00;;;;;;;8.55;79.03;94823.31;106748;1274;22546;-76
2023/12/25 08:27:35;;;;;;;4.60;1.60;;;;;;;8.56;79.10;94809.80;106773;1274;25421;-76
2023/12/25 08:30:05;;;;;;;3.40;2.10;;;;;;;8.59;78.82;94813.75;106753;1274;22785;-76
2023/12/25 08:32:33;;;;;;;3.90;2.30;;;;;;;8.64;78.54;94816.08;106773;1274;22526;-77
2023/12/25 08:35:03;;;;;;;4.50;3.90;;;;;;;8.64;78.72;94818.90;106802;1274;24217;-77
2023/12/25 08:37:31;;;;;;;3.20;1.90;;;;;;;8.64;78.58;94832.40;106636;1274;25411;-77
2023/12/25 08:39:59;;;;;;;4.00;2.60;;;;;;;8.67;78.35;94822.85;106673;1275;24251;-77
2023/12/25 08:42:27;;;;;;;2.50;1.90;;;;;;;8.68;78.37;94815.48;106812;1274;22523;-77
2023/12/25 08:44:56;;;;;;;3.50;2.50;;;;;;;8.69;78.36;94816.50;106790;1274;22641;-77
2023/12/25 08:47:25;;;;;;;4.10;2.40;;;;;;;8.73;77.85;94825.52;106700;1274;25405;-77
2023/12/25 08:49:53;;;;;;;2.70;2.20;;;;;;;8.81;77.09;94819.38;106809;1274;22528;-77
2023/12/25 08:52:22;;;;;;;2.70;2.30;;;;;;;8.86;76.76;94824.35;106767;1274;25382;-77
2023/12/25 08:54:50;;;;;;;3.90;2.10;;;;;;;8.89;76.54;94806.38;106780;1274;23886;-77
2023/12/25 08:57:18;;;;;;;4.20;2.30;;;;;;;8.90;76.83;94818.46;106691;1274;22524;-76
2023/12/25 08:59:49;;;;;;;1.90;1.70;;;;;;;8.92;76.82;94818.75;106690;1274;22531;-77
2023/12/25 09:02:19;;;;;;;3.50;2.00;;;;;;;8.95;76.35;94823.42;106728;1274;22524;-77
2023/12/25 09:04:49;;;;;;;1.80;1.60;;;;;;;8.98;76.05;94837.03;106701;1274;22622;-76
2023/12/25 09:07:18;;;;;;;3.60;2.20;;;;;;;9.01;75.83;94839.57;106880;1274;24221;-77
2023/12/25 09:09:46;;;;;;;4.10;2.20;;;;;;;9.03;75.84;94831.80;106796;1274;24227;-77
2023/12/25 09:12:14;;;;;;;3.90;2.20;;;;;;;9.04;75.56;94837.56;106853;1260;22635;-77
2023/12/25 09:14:45;;;;;;;2.30;2.00;;;;;;;9.06;75.66;94837.70;106767;1274;24280;-78
2023/12/25 09:17:16;;;;;;;7.10;2.90;;;;;;;9.06;74.95;94830.48;107006;1274;23893;-77
2023/12/25 09:19:44;;;;;;;2.90;1.70;;;;;;;9.08;75.21;94825.88;107017;1274;22550;-77
2023/12/25 09:22:13;;;;;;;3.90;2.20;;;;;;;9.09;74.81;94817.27;106937;1251;25492;-78
2023/12/25 09:24:44;;;;;;;4.10;2.50;;;;;;;9.09;74.96;94824.09;106721;1261;22557;-77
2023/12/25 09:27:12;;;;;;;2.50;1.80;;;;;;;9.10;74.31;94826.90;106757;1274;22533;-77
2023/12/25 09:29:41;;;;;;;2.10;1.90;;;;;;;9.14;74.29;94844.00;106784;1274;25494;-77
2023/12/25 09:32:09;;;;;;;2.30;1.90;;;;;;;9.13;74.38;94824.73;106838;1274;24300;-77
2023/12/25 09:34:37;;;;;;;3.40;1.50;;;;;;;9.13;73.98;94831.22;106824;1274;22530;-76
2023/12/25 09:37:25;;;;;;;4.40;1.90;;;;;;;9.15;73.84;94820.11;106747;1274;25412;-77
2023/12/25 09:39:55;;;;;;;1.90;1.60;;;;;;;9.16;74.08;94815.87;106760;1274;24210;-77
2023/12/25 09:42:23;;;;;;;1.70;1.30;;;;;;;9.15;74.27;94829.77;106771;1274;22532;-77
2023/12/25 09:44:54;;;;;;;13.50;8.00;;;;;;;9.16;73.97;94824.98;106787;1274;22681;-76
2023/12/25 09:47:23;;;;;;;3.70;2.10;;;;;;;9.17;74.11;94824.61;106856;1274;24394;-77
2023/12/25 09:49:54;;;;;;;2.80;2.50;;;;;;;9.22;73.82;94801.70;106810;1274;22580;-78
2023/12/25 09:52:24;;;;;;;2.40;1.90;;;;;;;9.24;73.22;94814.26;106761;1274;22582;-77
2023/12/25 09:54:52;;;;;;;4.10;2.20;;;;;;;9.28;72.93;94822.40;106794;1274;22534;-76
2023/12/25 09:57:24;;;;;;;3.90;2.40;;;;;;;9.32;73.04;94828.27;106653;1274;22519;-76
2023/12/25 10:02:06;;;;;;;2.10;1.90;;;;;;;9.37;73.20;94833.76;103505;1305;547157;-75
2023/12/25 10:04:37;;;;;;;2.70;2.00;;;;;;;9.34;73.28;94838.94;105930;1288;22729;-76
2023/12/25 10:07:07;;;;;;;1.80;1.40;;;;;;;9.39;72.63;94852.13;106029;1288;22588;-75
2023/12/25 10:09:35;;;;;;;2.80;1.30;;;;;;;9.45;72.42;94841.61;105936;1288;22764;-77
2023/12/25 10:12:04;;;;;;;3.30;2.00;;;;;;;9.48;72.39;94839.06;105982;1288;26628;-79
2023/12/25 10:14:33;;;;;;;3.60;1.50;;;;;;;9.51;72.29;94847.06;105425;1283;1231854;-77
2023/12/25 10:17:02;;;;;;;3.40;2.40;;;;;;;9.51;72.21;94851.98;106350;1283;22818;-77
2023/12/25 10:19:30;;;;;;;2.70;1.90;;;;;;;9.51;72.35;94846.00;106401;1283;22540;-78
2023/12/25 10:21:58;;;;;;;1.90;1.50;;;;;;;9.52;72.16;94852.67;106361;1283;22604;-77
2023/12/25 10:24:27;;;;;;;3.10;2.60;;;;;;;9.51;72.23;94843.73;106360;1283;22582;-77
2023/12/25 10:27:02;;;;;;;4.70;2.90;;;;;;;9.51;72.46;94841.64;106368;1283;24220;-77
2023/12/25 10:29:38;;;;;;;3.80;2.70;;;;;;;9.49;71.98;94841.70;106381;1283;24241;-77
2023/12/25 10:32:17;;;;;;;2.10;1.60;;;;;;;9.47;71.81;94837.18;106312;1283;25262;-77
2023/12/25 10:34:46;;;;;;;4.50;3.50;;;;;;;9.45;71.93;94844.06;106151;1283;25649;-78
2023/12/25 10:37:15;;;;;;;5.60;3.00;;;;;;;9.44;71.35;94849.55;106217;1283;22757;-76
2023/12/25 10:39:43;;;;;;;4.00;2.60;;;;;;;9.43;71.50;94848.34;106355;1272;22688;-76
2023/12/25 10:42:15;;;;;;;5.50;2.90;;;;;;;9.42;71.77;94847.14;106208;1283;23272;-77
2023/12/25 10:44:47;;;;;;;3.10;2.00;;;;;;;9.38;71.53;94839.52;106088;1283;22573;-76
2023/12/25 10:47:16;;;;;;;7.60;3.90;;;;;;;9.37;71.72;94832.73;106125;1283;23891;-77
2023/12/25 10:50:56;;;;;;;4.50;2.20;;;;;;;9.37;71.16;94845.86;103785;1289;545765;-75
2023/12/25 10:53:25;;;;;;;6.60;3.40;;;;;;;9.35;71.03;94832.91;106222;1287;22809;-76
2023/12/25 10:55:54;;;;;;;4.50;3.20;;;;;;;9.34;70.52;94825.23;105900;1287;24235;-76
2023/12/25 10:58:25;;;;;;;2.10;1.50;;;;;;;9.36;70.00;94823.95;105834;1287;25524;-77
2023/12/25 11:00:56;;;;;;;6.20;4.10;;;;;;;9.37;69.78;94832.15;106000;1287;24420;-75
2023/12/25 11:03:26;;;;;;;5.60;4.20;;;;;;;9.39;69.42;94824.20;106134;1278;655387;-75
2023/12/25 11:05:56;;;;;;;2.10;1.40;;;;;;;9.43;68.33;94814.09;106611;1277;22547;-75
2023/12/25 11:08:25;;;;;;;3.50;2.50;;;;;;;9.50;68.23;94817.42;106452;1278;22652;-76
2023/12/25 11:11:05;;;;;;;4.00;2.40;;;;;;;9.53;68.17;94820.16;106512;1277;24328;-76
2023/12/25 11:13:33;;;;;;;4.30;3.20;;;;;;;9.56;67.75;94819.58;106549;1277;22793;-76
2023/12/25 11:16:03;;;;;;;4.80;2.10;;;;;;;9.60;67.40;94813.13;106443;1278;24424;-77
2023/12/25 11:18:35;;;;;;;2.50;1.80;;;;;;;9.68;66.67;94819.22;106547;1277;22533;-76
2023/12/25 11:21:07;;;;;;;1.90;1.60;;;;;;;9.78;65.50;94805.43;106463;1277;24358;-76
2023/12/25 11:23:42;;;;;;;5.20;2.90;;;;;;;9.89;65.06;94813.23;106551;1277;24358;-77
2023/12/25 11:26:12;;;;;;;3.80;2.00;;;;;;;10.01;65.00;94814.97;106545;1277;22612;-76
2023/12/25 11:28:42;;;;;;;1.90;1.70;;;;;;;10.14;64.33;94814.41;106306;1270;25319;-76
2023/12/25 11:31:20;;;;;;;7.80;4.60;;;;;;;10.23;64.72;94814.14;106612;1278;26535;-75
2023/12/25 11:33:49;;;;;;;3.80;2.70;;;;;;;10.33;64.47;94814.74;106727;1277;22543;-75
2023/12/25 11:36:18;;;;;;;4.90;3.60;;;;;;;10.40;64.18;94816.29;106781;1278;22586;-74
2023/12/25 11:38:54;;;;;;;9.60;7.80;;;;;;;10.49;64.25;94813.58;106520;1277;22541;-77
2023/12/25 11:41:23;;;;;;;3.20;2.60;;;;;;;10.53;64.04;94811.16;106563;1277;25312;-77
2023/12/25 11:43:51;;;;;;;3.00;2.00;;;;;;;10.56;63.84;94815.80;106378;1278;22533;-76